sensor_id;sensor_type;location;lat;lon;timestamp;P1;durP1;ratioP1;P2;durP2;ratioP2
63016;SDS011;50274;45.640;11.756;2022-12-08T00:02:16;22.83;;;11.23;;
63016;SDS011;50274;45.640;11.756;2022-12-08T00:04:42;21.55;;;11.90;;
63016;SDS011;50274;45.640;11.756;2022-12-08T00:07:26;22.42;;;12.30;;
63016;SDS011;50274;45.640;11.756;2022-12-08T00:10:10;21.98;;;11.07;;
63016;SDS011;50274;45.640;11.756;2022-12-08T00:12:36;22.87;;;10.97;;
63016;SDS011;50274;45.640;11.756;2022-12-08T00:15:02;18.83;;;10.35;;
63016;SDS011;50274;45.640;11.756;2022-12-08T00:17:28;21.23;;;10.00;;
63016;SDS011;50274;45.640;11.756;2022-12-08T00:19:53;18.27;;;9.97;;
63016;SDS011;50274;45.640;11.756;2022-12-08T00:22:19;17.50;;;9.35;;
63016;SDS011;50274;45.640;11.756;2022-12-08T00:24:45;17.77;;;9.43;;
63016;SDS011;50274;45.640;11.756;2022-12-08T00:27:11;19.40;;;9.50;;
63016;SDS011;50274;45.640;11.756;2022-12-08T00:29:38;15.27;;;8.07;;
63016;SDS011;50274;45.640;11.756;2022-12-08T00:32:05;14.87;;;8.43;;
63016;SDS011;50274;45.640;11.756;2022-12-08T00:34:31;15.80;;;8.00;;
63016;SDS011;50274;45.640;11.756;2022-12-08T00:36:57;13.82;;;7.80;;
63016;SDS011;50274;45.640;11.756;2022-12-08T00:39:23;11.80;;;7.10;;
63016;SDS011;50274;45.640;11.756;2022-12-08T00:41:49;13.43;;;6.83;;
63016;SDS011;50274;45.640;11.756;2022-12-08T00:44:33;13.85;;;7.38;;
63016;SDS011;50274;45.640;11.756;2022-12-08T00:46:58;14.65;;;7.07;;
63016;SDS011;50274;45.640;11.756;2022-12-08T00:49:24;13.40;;;6.87;;
63016;SDS011;50274;45.640;11.756;2022-12-08T00:51:50;11.13;;;6.50;;
63016;SDS011;50274;45.640;11.756;2022-12-08T00:54:16;12.25;;;5.95;;
63016;SDS011;50274;45.640;11.756;2022-12-08T00:56:42;11.93;;;6.30;;
63016;SDS011;50274;45.640;11.756;2022-12-08T00:59:08;13.15;;;6.60;;
63016;SDS011;50274;45.640;11.756;2022-12-08T01:01:34;11.60;;;5.95;;
63016;SDS011;50274;45.640;11.756;2022-12-08T01:04:04;9.77;;;5.80;;
63016;SDS011;50274;45.640;11.756;2022-12-08T01:06:31;9.23;;;4.93;;
63016;SDS011;50274;45.640;11.756;2022-12-08T01:08:58;12.85;;;5.88;;
63016;SDS011;50274;45.640;11.756;2022-12-08T01:11:26;12.32;;;5.40;;
63016;SDS011;50274;45.640;11.756;2022-12-08T01:13:52;10.97;;;5.17;;
63016;SDS011;50274;45.640;11.756;2022-12-08T01:16:25;11.13;;;4.88;;
63016;SDS011;50274;45.640;11.756;2022-12-08T01:18:56;8.23;;;4.70;;
63016;SDS011;50274;45.640;11.756;2022-12-08T01:21:22;10.07;;;4.68;;
63016;SDS011;50274;45.640;11.756;2022-12-08T01:23:49;10.02;;;4.05;;
63016;SDS011;50274;45.640;11.756;2022-12-08T01:26:16;8.53;;;3.87;;
63016;SDS011;50274;45.640;11.756;2022-12-08T01:28:43;9.60;;;4.30;;
63016;SDS011;50274;45.640;11.756;2022-12-08T01:31:10;8.30;;;3.45;;
63016;SDS011;50274;45.640;11.756;2022-12-08T01:33:37;7.40;;;3.13;;
63016;SDS011;50274;45.640;11.756;2022-12-08T01:36:04;6.83;;;2.77;;
63016;SDS011;50274;45.640;11.756;2022-12-08T01:38:30;6.43;;;2.85;;
63016;SDS011;50274;45.640;11.756;2022-12-08T01:40:56;7.32;;;2.90;;
63016;SDS011;50274;45.640;11.756;2022-12-08T01:43:22;6.43;;;2.70;;
63016;SDS011;50274;45.640;11.756;2022-12-08T01:45:48;6.10;;;2.63;;
63016;SDS011;50274;45.640;11.756;2022-12-08T01:48:23;8.23;;;2.80;;
63016;SDS011;50274;45.640;11.756;2022-12-08T01:50:52;6.28;;;2.88;;
63016;SDS011;50274;45.640;11.756;2022-12-08T01:53:23;8.15;;;2.47;;
63016;SDS011;50274;45.640;11.756;2022-12-08T01:55:55;5.73;;;2.60;;
63016;SDS011;50274;45.640;11.756;2022-12-08T01:58:32;4.93;;;1.95;;
63016;SDS011;50274;45.640;11.756;2022-12-08T02:01:01;5.47;;;2.10;;
63016;SDS011;50274;45.640;11.756;2022-12-08T02:03:33;5.70;;;2.20;;
63016;SDS011;50274;45.640;11.756;2022-12-08T02:06:12;5.50;;;1.98;;
63016;SDS011;50274;45.640;11.756;2022-12-08T02:08:39;6.83;;;2.00;;
63016;SDS011;50274;45.640;11.756;2022-12-08T02:11:09;6.70;;;2.17;;
63016;SDS011;50274;45.640;11.756;2022-12-08T02:13:36;4.78;;;1.88;;
63016;SDS011;50274;45.640;11.756;2022-12-08T02:22:10;5.83;;;2.37;;
63016;SDS011;50274;45.640;11.756;2022-12-08T02:25:10;5.95;;;2.03;;
63016;SDS011;50274;45.640;11.756;2022-12-08T02:36:06;6.27;;;2.60;;
63016;SDS011;50274;45.640;11.756;2022-12-08T02:38:46;6.53;;;2.60;;
63016;SDS011;50274;45.640;11.756;2022-12-08T02:41:40;6.88;;;2.72;;
63016;SDS011;50274;45.640;11.756;2022-12-08T02:44:15;6.22;;;2.50;;
63016;SDS011;50274;45.640;11.756;2022-12-08T02:46:46;6.45;;;3.00;;
63016;SDS011;50274;45.640;11.756;2022-12-08T02:49:16;7.57;;;2.87;;
63016;SDS011;50274;45.640;11.756;2022-12-08T02:51:42;8.65;;;3.03;;
63016;SDS011;50274;45.640;11.756;2022-12-08T02:54:08;6.40;;;3.10;;
63016;SDS011;50274;45.640;11.756;2022-12-08T02:59:55;6.35;;;2.97;;
63016;SDS011;50274;45.640;11.756;2022-12-08T03:08:34;6.63;;;2.97;;
63016;SDS011;50274;45.640;11.756;2022-12-08T03:11:13;7.23;;;3.50;;
63016;SDS011;50274;45.640;11.756;2022-12-08T03:13:56;6.63;;;3.30;;
63016;SDS011;50274;45.640;11.756;2022-12-08T03:16:25;7.68;;;3.78;;
63016;SDS011;50274;45.640;11.756;2022-12-08T03:19:04;7.90;;;3.83;;
63016;SDS011;50274;45.640;11.756;2022-12-08T03:21:37;7.10;;;3.60;;
63016;SDS011;50274;45.640;11.756;2022-12-08T03:24:05;7.27;;;3.20;;
63016;SDS011;50274;45.640;11.756;2022-12-08T03:26:35;6.63;;;3.20;;
63016;SDS011;50274;45.640;11.756;2022-12-08T03:29:09;7.75;;;3.25;;
63016;SDS011;50274;45.640;11.756;2022-12-08T03:31:37;7.38;;;3.25;;
63016;SDS011;50274;45.640;11.756;2022-12-08T03:34:05;6.97;;;3.50;;
63016;SDS011;50274;45.640;11.756;2022-12-08T03:36:33;7.40;;;3.40;;
63016;SDS011;50274;45.640;11.756;2022-12-08T03:38:59;11.25;;;4.05;;
63016;SDS011;50274;45.640;11.756;2022-12-08T03:41:25;8.00;;;3.58;;
63016;SDS011;50274;45.640;11.756;2022-12-08T03:43:55;7.80;;;3.60;;
63016;SDS011;50274;45.640;11.756;2022-12-08T03:46:26;7.93;;;3.28;;
63016;SDS011;50274;45.640;11.756;2022-12-08T03:48:53;8.90;;;4.00;;
63016;SDS011;50274;45.640;11.756;2022-12-08T03:51:19;9.13;;;3.30;;
63016;SDS011;50274;45.640;11.756;2022-12-08T03:53:45;9.32;;;5.25;;
63016;SDS011;50274;45.640;11.756;2022-12-08T03:58:48;13.52;;;6.00;;
63016;SDS011;50274;45.640;11.756;2022-12-08T04:01:14;11.60;;;5.38;;
63016;SDS011;50274;45.640;11.756;2022-12-08T04:03:39;10.97;;;4.90;;
63016;SDS011;50274;45.640;11.756;2022-12-08T04:06:05;10.10;;;4.35;;
63016;SDS011;50274;45.640;11.756;2022-12-08T04:08:31;13.25;;;4.50;;
63016;SDS011;50274;45.640;11.756;2022-12-08T04:10:57;10.37;;;4.67;;
63016;SDS011;50274;45.640;11.756;2022-12-08T04:13:23;10.15;;;4.70;;
63016;SDS011;50274;45.640;11.756;2022-12-08T04:15:49;8.27;;;3.97;;
63016;SDS011;50274;45.640;11.756;2022-12-08T04:18:14;12.40;;;4.50;;
63016;SDS011;50274;45.640;11.756;2022-12-08T04:20:41;8.68;;;3.53;;
63016;SDS011;50274;45.640;11.756;2022-12-08T04:23:08;9.18;;;4.00;;
63016;SDS011;50274;45.640;11.756;2022-12-08T04:25:35;11.02;;;3.80;;
63016;SDS011;50274;45.640;11.756;2022-12-08T04:28:01;10.03;;;3.80;;
63016;SDS011;50274;45.640;11.756;2022-12-08T04:30:27;9.00;;;4.30;;
63016;SDS011;50274;45.640;11.756;2022-12-08T04:32:53;8.70;;;3.90;;
63016;SDS011;50274;45.640;11.756;2022-12-08T04:35:19;8.25;;;3.53;;
63016;SDS011;50274;45.640;11.756;2022-12-08T04:37:45;7.13;;;3.50;;
63016;SDS011;50274;45.640;11.756;2022-12-08T04:40:11;10.18;;;3.97;;
63016;SDS011;50274;45.640;11.756;2022-12-08T04:42:37;9.68;;;3.92;;
63016;SDS011;50274;45.640;11.756;2022-12-08T04:45:03;8.40;;;3.60;;
63016;SDS011;50274;45.640;11.756;2022-12-08T04:47:30;8.45;;;4.00;;
63016;SDS011;50274;45.640;11.756;2022-12-08T04:49:56;7.82;;;3.58;;
63016;SDS011;50274;45.640;11.756;2022-12-08T04:52:22;8.77;;;4.07;;
63016;SDS011;50274;45.640;11.756;2022-12-08T04:54:48;8.60;;;3.60;;
63016;SDS011;50274;45.640;11.756;2022-12-08T04:57:13;9.15;;;4.00;;
63016;SDS011;50274;45.640;11.756;2022-12-08T04:59:39;7.80;;;3.40;;
63016;SDS011;50274;45.640;11.756;2022-12-08T05:02:05;9.40;;;3.92;;
63016;SDS011;50274;45.640;11.756;2022-12-08T05:04:31;7.65;;;3.58;;
63016;SDS011;50274;45.640;11.756;2022-12-08T05:06:57;9.33;;;4.10;;
63016;SDS011;50274;45.640;11.756;2022-12-08T05:09:23;8.75;;;4.13;;
63016;SDS011;50274;45.640;11.756;2022-12-08T05:11:49;9.18;;;3.97;;
63016;SDS011;50274;45.640;11.756;2022-12-08T05:14:15;9.60;;;4.03;;
63016;SDS011;50274;45.640;11.756;2022-12-08T05:16:43;7.97;;;3.85;;
63016;SDS011;50274;45.640;11.756;2022-12-08T05:19:09;9.48;;;3.90;;
63016;SDS011;50274;45.640;11.756;2022-12-08T05:21:35;9.05;;;3.72;;
63016;SDS011;50274;45.640;11.756;2022-12-08T05:24:01;8.17;;;3.40;;
63016;SDS011;50274;45.640;11.756;2022-12-08T05:26:27;9.70;;;3.67;;
63016;SDS011;50274;45.640;11.756;2022-12-08T05:28:53;9.90;;;4.60;;
63016;SDS011;50274;45.640;11.756;2022-12-08T05:31:18;9.20;;;4.10;;
63016;SDS011;50274;45.640;11.756;2022-12-08T05:33:44;11.73;;;4.30;;
63016;SDS011;50274;45.640;11.756;2022-12-08T05:36:11;9.25;;;3.95;;
63016;SDS011;50274;45.640;11.756;2022-12-08T05:38:38;7.97;;;3.50;;
63016;SDS011;50274;45.640;11.756;2022-12-08T05:41:08;8.98;;;3.97;;
63016;SDS011;50274;45.640;11.756;2022-12-08T05:43:37;8.95;;;3.60;;
63016;SDS011;50274;45.640;11.756;2022-12-08T05:46:03;8.48;;;3.50;;
63016;SDS011;50274;45.640;11.756;2022-12-08T05:48:29;8.57;;;3.38;;
63016;SDS011;50274;45.640;11.756;2022-12-08T05:50:55;9.13;;;3.50;;
63016;SDS011;50274;45.640;11.756;2022-12-08T05:53:21;9.88;;;3.47;;
63016;SDS011;50274;45.640;11.756;2022-12-08T05:55:47;7.22;;;3.70;;
63016;SDS011;50274;45.640;11.756;2022-12-08T05:58:14;6.83;;;3.17;;
63016;SDS011;50274;45.640;11.756;2022-12-08T06:00:41;8.48;;;3.70;;
63016;SDS011;50274;45.640;11.756;2022-12-08T06:03:07;8.43;;;4.07;;
63016;SDS011;50274;45.640;11.756;2022-12-08T06:05:36;9.35;;;4.07;;
63016;SDS011;50274;45.640;11.756;2022-12-08T06:08:01;7.57;;;3.73;;
63016;SDS011;50274;45.640;11.756;2022-12-08T06:10:27;7.45;;;3.60;;
63016;SDS011;50274;45.640;11.756;2022-12-08T06:12:53;8.60;;;3.78;;
63016;SDS011;50274;45.640;11.756;2022-12-08T06:15:19;10.77;;;4.87;;
63016;SDS011;50274;45.640;11.756;2022-12-08T06:17:45;8.95;;;4.10;;
63016;SDS011;50274;45.640;11.756;2022-12-08T06:20:11;8.23;;;3.80;;
63016;SDS011;50274;45.640;11.756;2022-12-08T06:22:37;9.13;;;3.83;;
63016;SDS011;50274;45.640;11.756;2022-12-08T06:25:03;10.25;;;4.53;;
63016;SDS011;50274;45.640;11.756;2022-12-08T06:27:29;8.68;;;4.07;;
63016;SDS011;50274;45.640;11.756;2022-12-08T06:29:56;9.63;;;4.47;;
63016;SDS011;50274;45.640;11.756;2022-12-08T06:32:22;9.37;;;4.47;;
63016;SDS011;50274;45.640;11.756;2022-12-08T06:34:48;9.50;;;4.38;;
63016;SDS011;50274;45.640;11.756;2022-12-08T06:37:14;9.55;;;4.55;;
63016;SDS011;50274;45.640;11.756;2022-12-08T06:39:40;12.67;;;5.60;;
63016;SDS011;50274;45.640;11.756;2022-12-08T06:42:06;11.20;;;5.20;;
63016;SDS011;50274;45.640;11.756;2022-12-08T06:44:50;9.53;;;4.97;;
63016;SDS011;50274;45.640;11.756;2022-12-08T06:47:16;8.90;;;4.60;;
63016;SDS011;50274;45.640;11.756;2022-12-08T06:49:42;11.05;;;5.32;;
63016;SDS011;50274;45.640;11.756;2022-12-08T06:52:07;8.80;;;4.67;;
63016;SDS011;50274;45.640;11.756;2022-12-08T06:54:33;9.90;;;5.10;;
63016;SDS011;50274;45.640;11.756;2022-12-08T06:56:59;10.03;;;4.57;;
63016;SDS011;50274;45.640;11.756;2022-12-08T06:59:25;9.55;;;4.60;;
63016;SDS011;50274;45.640;11.756;2022-12-08T07:01:51;11.00;;;5.03;;
63016;SDS011;50274;45.640;11.756;2022-12-08T07:04:17;13.03;;;5.80;;
63016;SDS011;50274;45.640;11.756;2022-12-08T07:06:42;10.13;;;5.20;;
63016;SDS011;50274;45.640;11.756;2022-12-08T07:09:08;9.50;;;5.07;;
63016;SDS011;50274;45.640;11.756;2022-12-08T07:11:34;10.85;;;5.95;;
63016;SDS011;50274;45.640;11.756;2022-12-08T07:14:02;12.30;;;6.38;;
63016;SDS011;50274;45.640;11.756;2022-12-08T07:16:28;11.48;;;5.68;;
63016;SDS011;50274;45.640;11.756;2022-12-08T07:18:54;12.35;;;5.20;;
63016;SDS011;50274;45.640;11.756;2022-12-08T07:21:20;9.90;;;4.80;;
63016;SDS011;50274;45.640;11.756;2022-12-08T07:23:46;11.60;;;5.13;;
63016;SDS011;50274;45.640;11.756;2022-12-08T07:26:14;9.25;;;5.03;;
63016;SDS011;50274;45.640;11.756;2022-12-08T07:28:40;9.43;;;5.13;;
63016;SDS011;50274;45.640;11.756;2022-12-08T07:31:07;12.13;;;5.75;;
63016;SDS011;50274;45.640;11.756;2022-12-08T07:33:41;9.07;;;4.32;;
63016;SDS011;50274;45.640;11.756;2022-12-08T07:36:08;11.45;;;5.35;;
63016;SDS011;50274;45.640;11.756;2022-12-08T07:38:34;10.23;;;4.90;;
63016;SDS011;50274;45.640;11.756;2022-12-08T07:41:00;10.68;;;5.40;;
63016;SDS011;50274;45.640;11.756;2022-12-08T07:43:26;9.20;;;4.85;;
63016;SDS011;50274;45.640;11.756;2022-12-08T07:45:52;10.27;;;5.72;;
63016;SDS011;50274;45.640;11.756;2022-12-08T07:48:18;14.33;;;7.43;;
63016;SDS011;50274;45.640;11.756;2022-12-08T07:50:44;20.63;;;10.27;;
63016;SDS011;50274;45.640;11.756;2022-12-08T07:53:11;21.48;;;10.77;;
63016;SDS011;50274;45.640;11.756;2022-12-08T07:55:38;20.35;;;10.90;;
63016;SDS011;50274;45.640;11.756;2022-12-08T07:58:05;21.60;;;11.77;;
63016;SDS011;50274;45.640;11.756;2022-12-08T08:00:31;22.20;;;12.38;;
63016;SDS011;50274;45.640;11.756;2022-12-08T08:02:57;23.77;;;14.05;;
63016;SDS011;50274;45.640;11.756;2022-12-08T08:05:23;23.50;;;13.53;;
63016;SDS011;50274;45.640;11.756;2022-12-08T08:07:49;24.13;;;13.65;;
63016;SDS011;50274;45.640;11.756;2022-12-08T08:10:14;24.10;;;12.80;;
63016;SDS011;50274;45.640;11.756;2022-12-08T08:12:40;26.13;;;13.60;;
63016;SDS011;50274;45.640;11.756;2022-12-08T08:15:07;33.67;;;17.02;;
63016;SDS011;50274;45.640;11.756;2022-12-08T08:17:38;22.25;;;12.98;;
63016;SDS011;50274;45.640;11.756;2022-12-08T08:20:05;24.40;;;13.43;;
63016;SDS011;50274;45.640;11.756;2022-12-08T08:22:32;22.83;;;12.90;;
63016;SDS011;50274;45.640;11.756;2022-12-08T08:24:58;20.95;;;11.75;;
63016;SDS011;50274;45.640;11.756;2022-12-08T08:27:24;18.37;;;11.10;;
63016;SDS011;50274;45.640;11.756;2022-12-08T08:29:51;21.25;;;11.45;;
63016;SDS011;50274;45.640;11.756;2022-12-08T08:32:17;22.85;;;11.60;;
63016;SDS011;50274;45.640;11.756;2022-12-08T08:34:43;23.95;;;11.85;;
63016;SDS011;50274;45.640;11.756;2022-12-08T08:37:09;17.57;;;10.07;;
63016;SDS011;50274;45.640;11.756;2022-12-08T08:39:35;24.52;;;13.98;;
63016;SDS011;50274;45.640;11.756;2022-12-08T08:42:01;19.87;;;12.77;;
63016;SDS011;50274;45.640;11.756;2022-12-08T08:44:27;21.53;;;13.20;;
63016;SDS011;50274;45.640;11.756;2022-12-08T08:46:52;20.67;;;12.55;;
63016;SDS011;50274;45.640;11.756;2022-12-08T08:49:18;20.60;;;12.63;;
63016;SDS011;50274;45.640;11.756;2022-12-08T08:51:44;22.33;;;13.27;;
63016;SDS011;50274;45.640;11.756;2022-12-08T08:54:10;21.58;;;11.93;;
63016;SDS011;50274;45.640;11.756;2022-12-08T08:56:36;23.63;;;12.75;;
63016;SDS011;50274;45.640;11.756;2022-12-08T08:59:02;23.57;;;12.60;;
63016;SDS011;50274;45.640;11.756;2022-12-08T09:01:28;19.73;;;11.90;;
63016;SDS011;50274;45.640;11.756;2022-12-08T09:03:54;26.08;;;14.65;;
63016;SDS011;50274;45.640;11.756;2022-12-08T09:06:21;23.42;;;14.23;;
63016;SDS011;50274;45.640;11.756;2022-12-08T09:08:52;22.87;;;14.87;;
63016;SDS011;50274;45.640;11.756;2022-12-08T09:11:18;24.23;;;13.85;;
63016;SDS011;50274;45.640;11.756;2022-12-08T09:13:47;23.90;;;14.25;;
63016;SDS011;50274;45.640;11.756;2022-12-08T09:16:13;23.65;;;13.73;;
63016;SDS011;50274;45.640;11.756;2022-12-08T09:18:40;23.98;;;14.10;;
63016;SDS011;50274;45.640;11.756;2022-12-08T09:21:07;21.70;;;12.73;;
63016;SDS011;50274;45.640;11.756;2022-12-08T09:23:41;19.95;;;12.13;;
63016;SDS011;50274;45.640;11.756;2022-12-08T09:26:07;21.83;;;12.07;;
63016;SDS011;50274;45.640;11.756;2022-12-08T09:28:33;22.98;;;14.40;;
63016;SDS011;50274;45.640;11.756;2022-12-08T09:30:59;20.60;;;12.47;;
63016;SDS011;50274;45.640;11.756;2022-12-08T09:33:25;19.65;;;12.30;;
63016;SDS011;50274;45.640;11.756;2022-12-08T09:35:51;20.65;;;11.15;;
63016;SDS011;50274;45.640;11.756;2022-12-08T09:38:18;16.75;;;10.88;;
63016;SDS011;50274;45.640;11.756;2022-12-08T09:41:11;19.53;;;11.40;;
63016;SDS011;50274;45.640;11.756;2022-12-08T09:46:15;16.45;;;9.50;;
63016;SDS011;50274;45.640;11.756;2022-12-08T09:48:50;20.20;;;10.18;;
63016;SDS011;50274;45.640;11.756;2022-12-08T09:51:20;17.13;;;9.77;;
63016;SDS011;50274;45.640;11.756;2022-12-08T09:53:55;19.63;;;9.30;;
63016;SDS011;50274;45.640;11.756;2022-12-08T09:56:28;18.40;;;9.88;;
63016;SDS011;50274;45.640;11.756;2022-12-08T09:59:05;19.85;;;9.55;;
63016;SDS011;50274;45.640;11.756;2022-12-08T10:01:53;18.20;;;10.07;;
63016;SDS011;50274;45.640;11.756;2022-12-08T10:04:21;16.10;;;9.35;;
63016;SDS011;50274;45.640;11.756;2022-12-08T10:06:53;19.40;;;10.53;;
63016;SDS011;50274;45.640;11.756;2022-12-08T10:09:32;16.55;;;9.25;;
63016;SDS011;50274;45.640;11.756;2022-12-08T10:12:23;15.77;;;9.55;;
63016;SDS011;50274;45.640;11.756;2022-12-08T10:17:59;15.75;;;9.63;;
63016;SDS011;50274;45.640;11.756;2022-12-08T10:20:33;18.07;;;10.37;;
63016;SDS011;50274;45.640;11.756;2022-12-08T10:25:42;15.77;;;9.60;;
63016;SDS011;50274;45.640;11.756;2022-12-08T10:28:10;16.33;;;8.77;;
63016;SDS011;50274;45.640;11.756;2022-12-08T10:30:36;14.55;;;8.30;;
63016;SDS011;50274;45.640;11.756;2022-12-08T10:33:03;13.23;;;7.70;;
63016;SDS011;50274;45.640;11.756;2022-12-08T10:35:49;14.77;;;8.10;;
63016;SDS011;50274;45.640;11.756;2022-12-08T10:38:25;15.07;;;7.95;;
63016;SDS011;50274;45.640;11.756;2022-12-08T10:43:48;17.17;;;10.70;;
63016;SDS011;50274;45.640;11.756;2022-12-08T10:46:22;16.83;;;10.93;;
63016;SDS011;50274;45.640;11.756;2022-12-08T10:48:53;16.85;;;10.80;;
63016;SDS011;50274;45.640;11.756;2022-12-08T10:54:01;19.27;;;10.68;;
63016;SDS011;50274;45.640;11.756;2022-12-08T10:56:30;43.75;;;22.77;;
63016;SDS011;50274;45.640;11.756;2022-12-08T10:59:11;25.77;;;13.50;;
63016;SDS011;50274;45.640;11.756;2022-12-08T11:01:50;18.17;;;11.50;;
63016;SDS011;50274;45.640;11.756;2022-12-08T11:04:18;17.75;;;11.35;;
63016;SDS011;50274;45.640;11.756;2022-12-08T11:06:46;16.70;;;10.77;;
63016;SDS011;50274;45.640;11.756;2022-12-08T11:14:15;15.73;;;10.38;;
63016;SDS011;50274;45.640;11.756;2022-12-08T11:19:29;17.02;;;9.90;;
63016;SDS011;50274;45.640;11.756;2022-12-08T11:21:55;18.20;;;10.33;;
63016;SDS011;50274;45.640;11.756;2022-12-08T11:26:53;16.50;;;10.43;;
63016;SDS011;50274;45.640;11.756;2022-12-08T11:29:27;15.60;;;9.50;;
63016;SDS011;50274;45.640;11.756;2022-12-08T11:32:16;17.60;;;9.87;;
63016;SDS011;50274;45.640;11.756;2022-12-08T11:34:49;16.20;;;10.15;;
63016;SDS011;50274;45.640;11.756;2022-12-08T11:45:26;13.70;;;9.00;;
63016;SDS011;50274;45.640;11.756;2022-12-08T11:48:09;17.73;;;9.68;;
63016;SDS011;50274;45.640;11.756;2022-12-08T11:50:46;14.20;;;8.20;;
63016;SDS011;50274;45.640;11.756;2022-12-08T11:54:03;14.35;;;8.00;;
63016;SDS011;50274;45.640;11.756;2022-12-08T11:56:23;15.38;;;8.48;;
63016;SDS011;50274;45.640;11.756;2022-12-08T11:58:56;13.87;;;7.33;;
63016;SDS011;50274;45.640;11.756;2022-12-08T12:01:26;10.82;;;5.72;;
63016;SDS011;50274;45.640;11.756;2022-12-08T12:20:08;11.15;;;6.93;;
63016;SDS011;50274;45.640;11.756;2022-12-08T12:22:44;13.48;;;7.43;;
63016;SDS011;50274;45.640;11.756;2022-12-08T12:25:20;17.02;;;9.57;;
63016;SDS011;50274;45.640;11.756;2022-12-08T12:27:49;16.00;;;9.50;;
63016;SDS011;50274;45.640;11.756;2022-12-08T12:30:21;19.53;;;9.30;;
63016;SDS011;50274;45.640;11.756;2022-12-08T12:32:59;13.77;;;8.93;;
63016;SDS011;50274;45.640;11.756;2022-12-08T12:36:01;14.23;;;8.57;;
63016;SDS011;50274;45.640;11.756;2022-12-08T12:38:23;11.65;;;7.05;;
63016;SDS011;50274;45.640;11.756;2022-12-08T12:41:08;13.05;;;6.68;;
63016;SDS011;50274;45.640;11.756;2022-12-08T12:43:37;10.70;;;5.77;;
63016;SDS011;50274;45.640;11.756;2022-12-08T12:48:48;11.75;;;5.85;;
63016;SDS011;50274;45.640;11.756;2022-12-08T12:51:59;9.45;;;5.78;;
63016;SDS011;50274;45.640;11.756;2022-12-08T12:54:24;9.02;;;5.25;;
63016;SDS011;50274;45.640;11.756;2022-12-08T12:59:45;12.93;;;7.82;;
63016;SDS011;50274;45.640;11.756;2022-12-08T13:02:25;14.27;;;8.02;;
63016;SDS011;50274;45.640;11.756;2022-12-08T13:05:08;12.52;;;7.60;;
63016;SDS011;50274;45.640;11.756;2022-12-08T13:21:12;11.32;;;6.68;;
63016;SDS011;50274;45.640;11.756;2022-12-08T13:23:47;11.60;;;7.13;;
63016;SDS011;50274;45.640;11.756;2022-12-08T13:26:32;10.98;;;6.72;;
63016;SDS011;50274;45.640;11.756;2022-12-08T13:29:21;13.27;;;7.25;;
63016;SDS011;50274;45.640;11.756;2022-12-08T13:37:16;11.27;;;6.20;;
63016;SDS011;50274;45.640;11.756;2022-12-08T13:39:52;11.77;;;6.90;;
63016;SDS011;50274;45.640;11.756;2022-12-08T13:47:50;12.07;;;7.60;;
63016;SDS011;50274;45.640;11.756;2022-12-08T13:50:41;12.13;;;6.90;;
63016;SDS011;50274;45.640;11.756;2022-12-08T13:53:19;10.85;;;7.30;;
63016;SDS011;50274;45.640;11.756;2022-12-08T13:55:58;10.73;;;6.38;;
63016;SDS011;50274;45.640;11.756;2022-12-08T13:58:29;10.05;;;6.35;;
63016;SDS011;50274;45.640;11.756;2022-12-08T14:03:25;10.47;;;6.33;;
63016;SDS011;50274;45.640;11.756;2022-12-08T14:05:51;10.38;;;6.30;;
63016;SDS011;50274;45.640;11.756;2022-12-08T14:08:18;15.52;;;8.60;;
63016;SDS011;50274;45.640;11.756;2022-12-08T14:11:01;16.58;;;9.82;;
63016;SDS011;50274;45.640;11.756;2022-12-08T14:13:29;14.00;;;8.87;;
63016;SDS011;50274;45.640;11.756;2022-12-08T14:15:57;18.30;;;11.07;;
63016;SDS011;50274;45.640;11.756;2022-12-08T14:18:27;16.70;;;11.15;;
63016;SDS011;50274;45.640;11.756;2022-12-08T14:21:01;16.17;;;10.95;;
63016;SDS011;50274;45.640;11.756;2022-12-08T14:23:29;18.13;;;11.40;;
63016;SDS011;50274;45.640;11.756;2022-12-08T14:25:58;17.80;;;11.27;;
63016;SDS011;50274;45.640;11.756;2022-12-08T14:28:23;17.92;;;11.27;;
63016;SDS011;50274;45.640;11.756;2022-12-08T14:30:49;18.42;;;10.35;;
63016;SDS011;50274;45.640;11.756;2022-12-08T14:33:15;17.00;;;9.20;;
63016;SDS011;50274;45.640;11.756;2022-12-08T14:35:41;15.15;;;8.68;;
63016;SDS011;50274;45.640;11.756;2022-12-08T14:38:14;17.42;;;9.60;;
63016;SDS011;50274;45.640;11.756;2022-12-08T14:40:45;13.77;;;8.23;;
63016;SDS011;50274;45.640;11.756;2022-12-08T14:48:26;13.82;;;8.73;;
63016;SDS011;50274;45.640;11.756;2022-12-08T14:54:03;12.90;;;8.07;;
63016;SDS011;50274;45.640;11.756;2022-12-08T14:56:49;12.90;;;8.57;;
63016;SDS011;50274;45.640;11.756;2022-12-08T14:59:21;12.70;;;7.90;;
63016;SDS011;50274;45.640;11.756;2022-12-08T15:07:33;14.27;;;8.53;;
63016;SDS011;50274;45.640;11.756;2022-12-08T15:12:58;13.57;;;8.98;;
63016;SDS011;50274;45.640;11.756;2022-12-08T15:15:45;15.65;;;9.40;;
63016;SDS011;50274;45.640;11.756;2022-12-08T15:18:15;19.08;;;10.15;;
63016;SDS011;50274;45.640;11.756;2022-12-08T15:20:47;17.07;;;10.30;;
63016;SDS011;50274;45.640;11.756;2022-12-08T15:25:50;14.05;;;8.35;;
63016;SDS011;50274;45.640;11.756;2022-12-08T15:28:18;14.05;;;8.60;;
63016;SDS011;50274;45.640;11.756;2022-12-08T15:30:45;15.25;;;9.65;;
63016;SDS011;50274;45.640;11.756;2022-12-08T15:33:12;18.00;;;11.13;;
63016;SDS011;50274;45.640;11.756;2022-12-08T15:35:38;14.98;;;10.40;;
63016;SDS011;50274;45.640;11.756;2022-12-08T15:38:04;16.88;;;10.57;;
63016;SDS011;50274;45.640;11.756;2022-12-08T15:40:30;14.52;;;9.40;;
63016;SDS011;50274;45.640;11.756;2022-12-08T15:42:56;22.33;;;11.30;;
63016;SDS011;50274;45.640;11.756;2022-12-08T15:45:23;20.25;;;13.13;;
63016;SDS011;50274;45.640;11.756;2022-12-08T15:47:55;22.57;;;15.33;;
63016;SDS011;50274;45.640;11.756;2022-12-08T15:50:21;28.80;;;17.00;;
63016;SDS011;50274;45.640;11.756;2022-12-08T15:52:48;30.23;;;18.58;;
63016;SDS011;50274;45.640;11.756;2022-12-08T15:55:16;28.85;;;17.15;;
63016;SDS011;50274;45.640;11.756;2022-12-08T15:57:47;29.50;;;17.98;;
63016;SDS011;50274;45.640;11.756;2022-12-08T16:02:50;27.23;;;15.98;;
63016;SDS011;50274;45.640;11.756;2022-12-08T16:05:16;25.60;;;15.35;;
63016;SDS011;50274;45.640;11.756;2022-12-08T16:07:42;23.58;;;14.55;;
63016;SDS011;50274;45.640;11.756;2022-12-08T16:10:18;25.00;;;14.73;;
63016;SDS011;50274;45.640;11.756;2022-12-08T16:12:46;23.15;;;14.35;;
63016;SDS011;50274;45.640;11.756;2022-12-08T16:15:30;20.33;;;12.73;;
63016;SDS011;50274;45.640;11.756;2022-12-08T16:18:00;22.15;;;14.15;;
63016;SDS011;50274;45.640;11.756;2022-12-08T16:20:26;23.13;;;14.55;;
63016;SDS011;50274;45.640;11.756;2022-12-08T16:22:52;21.70;;;13.80;;
63016;SDS011;50274;45.640;11.756;2022-12-08T16:25:19;22.30;;;14.65;;
63016;SDS011;50274;45.640;11.756;2022-12-08T16:27:45;23.45;;;14.45;;
63016;SDS011;50274;45.640;11.756;2022-12-08T16:30:14;25.52;;;16.38;;
63016;SDS011;50274;45.640;11.756;2022-12-08T16:32:41;25.77;;;15.67;;
63016;SDS011;50274;45.640;11.756;2022-12-08T16:35:09;26.02;;;16.77;;
63016;SDS011;50274;45.640;11.756;2022-12-08T16:37:36;29.60;;;17.02;;
63016;SDS011;50274;45.640;11.756;2022-12-08T16:40:02;32.28;;;18.98;;
63016;SDS011;50274;45.640;11.756;2022-12-08T16:42:30;32.70;;;19.30;;
63016;SDS011;50274;45.640;11.756;2022-12-08T16:47:45;30.35;;;17.20;;